createdAt,value
2022-12-19T00:00:48.994Z,0.05
2022-12-19T00:01:49.170Z,0.05
2022-12-19T00:02:49.359Z,0.07
2022-12-19T00:03:49.327Z,0.07
2022-12-19T00:04:49.354Z,0.10
2022-12-19T00:05:49.428Z,0.12
2022-12-19T00:06:49.529Z,0.10
2022-12-19T00:07:49.601Z,0.05
2022-12-19T00:08:49.675Z,0.02
2022-12-19T00:09:49.768Z,0.04
2022-12-19T00:10:49.870Z,-0.01
2022-12-19T00:11:49.962Z,-0.02
2022-12-19T00:12:50.009Z,-0.01
2022-12-19T00:13:50.083Z,-0.05
2022-12-19T00:14:50.142Z,-0.05
2022-12-19T00:15:50.268Z,-0.05
2022-12-19T00:16:50.311Z,-0.06
2022-12-19T00:17:50.386Z,-0.12
2022-12-19T00:18:50.439Z,-0.09
2022-12-19T00:19:50.510Z,-0.12
2022-12-19T00:20:50.564Z,-0.09
2022-12-19T00:21:50.682Z,-0.08
2022-12-19T00:22:51.099Z,-0.05
2022-12-19T00:23:50.832Z,-0.08
2022-12-19T00:24:50.884Z,-0.06
2022-12-19T00:25:50.961Z,-0.03
2022-12-19T00:26:51.031Z,-0.03
2022-12-19T00:27:51.109Z,0.02
2022-12-19T00:28:51.187Z,0.01
2022-12-19T00:29:51.260Z,0.01
2022-12-19T00:30:51.552Z,-0.03
2022-12-19T00:31:51.465Z,-0.02
2022-12-19T00:32:51.441Z,0.01
2022-12-19T00:33:51.549Z,0.02
2022-12-19T00:34:51.628Z,0.05
2022-12-19T00:35:51.732Z,0.02
2022-12-19T00:36:51.829Z,0.04
2022-12-19T00:37:51.906Z,0.02
2022-12-19T00:38:51.993Z,0.01
2022-12-19T00:39:52.093Z,0.04
2022-12-19T00:40:52.167Z,0.02
2022-12-19T00:41:52.286Z,0.05
2022-12-19T00:42:53.778Z,0.04
2022-12-19T00:43:52.419Z,0.04
2022-12-19T00:44:52.493Z,0.02
2022-12-19T00:45:52.663Z,-0.01
2022-12-19T00:46:53.185Z,0.01
2022-12-19T00:47:52.792Z,-0.01
2022-12-19T00:48:52.840Z,-0.01
2022-12-19T00:49:52.914Z,0.02
2022-12-19T00:50:52.991Z,0.02
2022-12-19T00:51:53.093Z,0.04
2022-12-19T00:52:53.134Z,0.04
2022-12-19T00:53:53.243Z,0.05
2022-12-19T00:54:53.380Z,0.05
2022-12-19T00:55:53.408Z,0.07
2022-12-19T00:56:53.497Z,0.05
2022-12-19T00:57:53.580Z,0.04
2022-12-19T00:58:53.659Z,0.07
2022-12-19T00:59:53.726Z,0.05
2022-12-19T01:00:53.860Z,0.08
2022-12-19T01:01:54.064Z,0.08
2022-12-19T01:02:54.209Z,0.08
2022-12-19T01:04:26.600Z,0.13
2022-12-19T01:04:54.166Z,0.10
2022-12-19T01:05:54.236Z,0.08
2022-12-19T01:06:54.310Z,0.05
2022-12-19T01:07:54.385Z,0.08
2022-12-19T01:08:54.463Z,0.07
2022-12-19T01:09:55.580Z,0.07
2022-12-19T01:10:54.639Z,0.07
2022-12-19T01:11:54.764Z,0.07
2022-12-19T01:12:54.816Z,0.10
2022-12-19T01:13:54.921Z,0.13
2022-12-19T01:14:55.764Z,0.12
2022-12-19T01:15:55.226Z,0.10
2022-12-19T01:16:55.166Z,0.08
2022-12-19T01:17:55.249Z,0.10
2022-12-19T01:18:55.331Z,0.12
2022-12-19T01:19:55.405Z,0.13
2022-12-19T01:20:55.478Z,0.15
2022-12-19T01:21:55.591Z,0.16
2022-12-19T01:22:55.633Z,0.13
2022-12-19T01:23:55.701Z,0.15
2022-12-19T01:24:55.783Z,0.16
2022-12-19T01:25:55.856Z,0.16
2022-12-19T01:26:55.942Z,0.17
2022-12-19T01:27:56.019Z,0.17
2022-12-19T01:28:56.080Z,0.17
2022-12-19T01:29:56.189Z,0.16
2022-12-19T01:30:56.262Z,0.16
2022-12-19T01:31:56.415Z,0.17
2022-12-19T01:32:56.439Z,0.16
2022-12-19T01:33:56.542Z,0.19
2022-12-19T01:34:56.622Z,0.19
2022-12-19T01:35:56.729Z,0.17
2022-12-19T01:36:56.828Z,0.17
2022-12-19T01:38:08.481Z,0.15
2022-12-19T01:38:56.987Z,0.16
2022-12-19T01:39:57.057Z,0.17
2022-12-19T01:40:57.136Z,0.22
2022-12-19T01:41:57.244Z,0.22
2022-12-19T01:42:57.282Z,0.22
2022-12-19T01:43:57.367Z,0.23
2022-12-19T01:44:57.450Z,0.23
2022-12-19T01:45:57.565Z,0.23
2022-12-19T01:46:57.644Z,0.28
2022-12-19T01:47:57.718Z,0.34
2022-12-19T01:48:57.799Z,0.33
2022-12-19T01:49:57.890Z,0.33
2022-12-19T01:51:01.784Z,0.33
2022-12-19T01:51:58.055Z,0.35
2022-12-19T01:52:58.095Z,0.38
2022-12-19T01:53:58.200Z,0.40
2022-12-19T01:54:58.283Z,0.40
2022-12-19T01:55:58.375Z,0.41
2022-12-19T01:56:58.443Z,0.44
2022-12-19T01:57:58.493Z,0.44
2022-12-19T01:59:06.664Z,0.44
2022-12-19T01:59:58.683Z,0.48
2022-12-19T02:00:58.767Z,0.49
2022-12-19T02:01:59.188Z,0.49
2022-12-19T02:02:59.019Z,0.51
2022-12-19T02:03:59.007Z,0.49
2022-12-19T02:04:59.089Z,0.48
2022-12-19T02:05:59.178Z,0.51
2022-12-19T02:06:59.269Z,0.51
2022-12-19T02:07:59.329Z,0.51
2022-12-19T02:08:59.404Z,0.53
2022-12-19T02:09:59.489Z,0.57
2022-12-19T02:10:59.559Z,0.57
2022-12-19T02:11:59.650Z,0.57
2022-12-19T02:12:59.738Z,0.56
2022-12-19T02:13:59.819Z,0.53
2022-12-19T02:15:02.985Z,0.56
2022-12-19T02:15:59.967Z,0.56
2022-12-19T02:17:00.109Z,0.57
2022-12-19T02:18:00.110Z,0.59
2022-12-19T02:19:00.206Z,0.60
2022-12-19T02:20:00.298Z,0.62
2022-12-19T02:21:00.359Z,0.63
2022-12-19T02:22:00.453Z,0.62
2022-12-19T02:23:00.548Z,0.63
2022-12-19T02:24:00.625Z,0.70
2022-12-19T02:25:00.728Z,0.70
2022-12-19T02:26:00.824Z,0.70
2022-12-19T02:27:00.931Z,0.72
2022-12-19T02:28:00.980Z,0.72
2022-12-19T02:29:01.073Z,0.74
2022-12-19T02:30:01.162Z,0.75
2022-12-19T02:31:01.234Z,0.77
2022-12-19T02:32:01.369Z,0.78
2022-12-19T02:33:01.384Z,0.77
2022-12-19T02:34:01.465Z,0.80
2022-12-19T02:35:01.542Z,0.80
2022-12-19T02:36:01.621Z,0.81
2022-12-19T02:37:01.715Z,0.81
2022-12-19T02:38:01.783Z,0.82
2022-12-19T02:39:01.865Z,0.84
2022-12-19T02:40:01.945Z,0.84
2022-12-19T02:41:02.016Z,0.84
2022-12-19T02:42:03.682Z,0.82
2022-12-19T02:43:02.195Z,0.86
2022-12-19T02:44:02.271Z,0.88
2022-12-19T02:45:02.347Z,0.89
2022-12-19T02:46:02.478Z,0.90
2022-12-19T02:47:02.513Z,0.89
2022-12-19T02:48:08.455Z,0.93
2022-12-19T02:49:02.686Z,0.96
2022-12-19T02:50:02.791Z,1.00
2022-12-19T02:51:02.854Z,1.06
2022-12-19T02:52:02.925Z,1.10
2022-12-19T02:53:03.032Z,1.13
2022-12-19T02:54:03.106Z,1.13
2022-12-19T02:55:03.186Z,1.14
2022-12-19T02:56:03.263Z,1.17
2022-12-19T02:57:03.374Z,1.16
2022-12-19T02:58:03.448Z,1.18
2022-12-19T02:59:03.495Z,1.17
2022-12-19T03:00:03.572Z,1.17
2022-12-19T03:01:03.759Z,1.17
2022-12-19T03:02:03.881Z,1.18
2022-12-19T03:03:03.918Z,1.18
2022-12-19T03:04:03.874Z,1.21
2022-12-19T03:05:03.948Z,1.21
2022-12-19T03:06:04.040Z,1.25
2022-12-19T03:07:04.132Z,1.25
2022-12-19T03:08:04.221Z,1.28
2022-12-19T03:09:04.265Z,1.29
2022-12-19T03:10:04.337Z,1.31
2022-12-19T03:11:04.418Z,1.34
2022-12-19T03:12:04.488Z,1.35
2022-12-19T03:13:04.585Z,1.36
2022-12-19T03:14:04.667Z,1.38
2022-12-19T03:15:04.735Z,1.36
2022-12-19T03:16:04.823Z,1.39
2022-12-19T03:17:04.990Z,1.49
2022-12-19T03:18:05.003Z,1.53
2022-12-19T03:19:05.044Z,1.54
2022-12-19T03:20:05.152Z,1.57
2022-12-19T03:21:05.237Z,1.61
2022-12-19T03:22:05.324Z,1.60
2022-12-19T03:23:05.411Z,1.57
2022-12-19T03:24:05.478Z,1.63
2022-12-19T03:25:05.552Z,1.68
2022-12-19T03:26:05.625Z,1.68
2022-12-19T03:27:05.708Z,1.70
2022-12-19T03:28:05.803Z,1.74
2022-12-19T03:29:05.868Z,1.79
2022-12-19T03:30:05.947Z,1.81
2022-12-19T03:31:06.095Z,1.77
2022-12-19T03:32:06.092Z,1.81
2022-12-19T03:33:06.181Z,1.85
2022-12-19T03:34:06.264Z,1.92
2022-12-19T03:35:06.358Z,1.98
2022-12-19T03:36:06.464Z,2.01
2022-12-19T03:37:06.517Z,2.04
2022-12-19T03:38:06.617Z,2.05
2022-12-19T03:39:06.660Z,2.11
2022-12-19T03:40:06.749Z,2.11
2022-12-19T03:41:06.822Z,2.14
2022-12-19T03:42:06.927Z,2.19
2022-12-19T03:43:07.016Z,2.18
2022-12-19T03:44:07.072Z,2.18
2022-12-19T03:45:07.134Z,2.15
2022-12-19T03:46:07.263Z,2.14
2022-12-19T03:47:07.309Z,2.11
2022-12-19T03:48:07.395Z,2.07
2022-12-19T03:49:07.465Z,2.02
2022-12-19T03:50:07.551Z,2.02
2022-12-19T03:51:07.640Z,2.01
2022-12-19T03:52:07.710Z,1.98
2022-12-19T03:53:07.804Z,1.95
2022-12-19T03:54:07.885Z,1.93
2022-12-19T03:55:07.959Z,1.92
2022-12-19T03:56:08.032Z,1.92
2022-12-19T03:57:08.118Z,1.90
2022-12-19T03:58:08.206Z,1.93
2022-12-19T03:59:08.241Z,1.92
2022-12-19T04:00:08.313Z,1.89
2022-12-19T04:01:08.407Z,1.89
2022-12-19T04:02:08.584Z,1.85
2022-12-19T04:03:08.593Z,1.86
2022-12-19T04:04:08.623Z,1.83
2022-12-19T04:05:08.701Z,1.83
2022-12-19T04:06:08.777Z,1.86
2022-12-19T04:07:08.831Z,1.85
2022-12-19T04:08:08.915Z,1.86
2022-12-19T04:09:08.962Z,1.88
2022-12-19T04:10:09.046Z,1.88
2022-12-19T04:11:09.125Z,1.89
2022-12-19T04:12:09.234Z,1.92
2022-12-19T04:13:09.334Z,1.93
2022-12-19T04:14:09.427Z,1.93
2022-12-19T04:15:09.508Z,1.98
2022-12-19T04:16:09.722Z,2.01
2022-12-19T04:17:09.670Z,2.02
2022-12-19T04:18:09.780Z,2.05
2022-12-19T04:19:09.811Z,2.07
2022-12-19T04:20:09.907Z,2.08
2022-12-19T04:21:09.981Z,2.09
2022-12-19T04:22:10.056Z,2.14
2022-12-19T04:23:19.766Z,2.18
2022-12-19T04:24:10.213Z,2.15
2022-12-19T04:25:10.300Z,2.14
2022-12-19T04:26:10.385Z,2.15
2022-12-19T04:27:10.469Z,2.12
2022-12-19T04:28:10.576Z,2.12
2022-12-19T04:29:10.671Z,2.12
2022-12-19T04:30:10.745Z,2.14
2022-12-19T04:31:10.860Z,2.20
2022-12-19T04:32:10.928Z,2.22
2022-12-19T04:33:11.000Z,2.25
2022-12-19T04:34:11.128Z,2.27
2022-12-19T04:35:11.168Z,2.29
2022-12-19T04:36:11.233Z,2.33
2022-12-19T04:37:11.328Z,2.36
2022-12-19T04:38:11.390Z,2.37
2022-12-19T04:39:11.486Z,2.40
2022-12-19T04:40:11.601Z,2.40
2022-12-19T04:41:11.615Z,2.40
2022-12-19T04:42:11.723Z,2.40
2022-12-19T04:43:11.801Z,2.44
2022-12-19T04:44:11.930Z,2.47
2022-12-19T04:45:11.973Z,2.45
2022-12-19T04:46:12.104Z,2.47
2022-12-19T04:47:12.147Z,2.50
2022-12-19T04:48:12.240Z,2.55
2022-12-19T04:49:12.341Z,2.55
2022-12-19T04:50:12.414Z,2.55
2022-12-19T04:51:12.490Z,2.58
2022-12-19T04:52:12.580Z,2.61
2022-12-19T04:53:12.650Z,2.66
2022-12-19T04:54:12.737Z,2.89
2022-12-19T04:55:12.784Z,2.97
2022-12-19T04:56:12.852Z,3.05
2022-12-19T04:57:12.936Z,3.16
2022-12-19T04:58:16.343Z,3.28
2022-12-19T04:59:13.095Z,3.44
2022-12-19T05:00:13.163Z,3.45
2022-12-19T05:01:13.303Z,3.50
2022-12-19T05:02:13.438Z,3.54
2022-12-19T05:03:13.441Z,3.57
2022-12-19T05:04:13.516Z,3.59
2022-12-19T05:05:13.569Z,3.59
2022-12-19T05:06:13.661Z,3.75
2022-12-19T05:07:13.728Z,3.80
2022-12-19T05:08:13.802Z,3.86
2022-12-19T05:09:13.887Z,3.99
2022-12-19T05:10:13.963Z,4.13
2022-12-19T05:11:19.200Z,4.28
2022-12-19T05:12:14.151Z,4.39
2022-12-19T05:13:14.225Z,4.50
2022-12-19T05:14:14.345Z,4.59
2022-12-19T05:15:14.445Z,4.54
2022-12-19T05:16:14.532Z,4.56
2022-12-19T05:17:14.540Z,4.61
2022-12-19T05:18:14.606Z,4.68
2022-12-19T05:19:14.753Z,4.65
2022-12-19T05:20:14.777Z,4.74
2022-12-19T05:21:14.870Z,4.75
2022-12-19T05:22:14.962Z,4.77
2022-12-19T05:23:17.338Z,4.75
2022-12-19T05:24:15.142Z,4.72
2022-12-19T05:25:15.203Z,4.75
2022-12-19T05:26:15.305Z,4.80
2022-12-19T05:27:15.412Z,4.91
2022-12-19T05:28:15.472Z,5.04
2022-12-19T05:29:15.562Z,5.12
2022-12-19T05:30:15.644Z,5.12
2022-12-19T05:31:15.772Z,5.09
2022-12-19T05:32:15.812Z,5.08
2022-12-19T05:33:15.895Z,5.06
2022-12-19T05:34:15.982Z,5.02
2022-12-19T05:35:16.036Z,5.02
2022-12-19T05:36:16.152Z,5.06
2022-12-19T05:37:16.222Z,5.02
2022-12-19T05:38:16.292Z,4.99
2022-12-19T05:39:16.376Z,4.99
2022-12-19T05:40:16.450Z,5.02
2022-12-19T05:41:16.543Z,5.01
2022-12-19T05:42:16.606Z,5.04
2022-12-19T05:43:16.692Z,5.01
2022-12-19T05:44:16.799Z,4.97
2022-12-19T05:45:16.835Z,4.99
2022-12-19T05:46:17.012Z,4.99
2022-12-19T05:47:17.014Z,4.99
2022-12-19T05:48:17.086Z,5.02
2022-12-19T05:49:17.199Z,4.99
2022-12-19T05:50:17.273Z,5.01
2022-12-19T05:51:17.352Z,4.96
2022-12-19T05:52:17.422Z,4.93
2022-12-19T05:53:19.670Z,4.88
2022-12-19T05:54:17.619Z,4.84
2022-12-19T05:55:17.663Z,4.86
2022-12-19T05:56:17.766Z,4.80
2022-12-19T05:57:17.839Z,4.80
2022-12-19T05:58:17.911Z,4.79
2022-12-19T05:59:18.003Z,4.75
2022-12-19T06:00:18.095Z,4.80
2022-12-19T06:01:18.217Z,4.87
2022-12-19T06:02:18.368Z,4.90
2022-12-19T06:03:18.473Z,4.96
2022-12-19T06:04:18.458Z,4.97
2022-12-19T06:05:18.502Z,4.94
2022-12-19T06:06:18.597Z,5.01
2022-12-19T06:07:21.035Z,5.05
2022-12-19T06:08:18.746Z,5.08
2022-12-19T06:09:18.838Z,5.08
2022-12-19T06:10:18.899Z,5.06
2022-12-19T06:11:18.975Z,5.06
2022-12-19T06:12:19.047Z,5.02
2022-12-19T06:13:24.832Z,4.99
2022-12-19T06:14:19.237Z,4.93
2022-12-19T06:15:19.267Z,4.90
2022-12-19T06:16:19.491Z,4.84
2022-12-19T06:17:19.440Z,4.83
2022-12-19T06:18:19.520Z,4.75
2022-12-19T06:19:19.633Z,4.75
2022-12-19T06:20:19.690Z,4.79
2022-12-19T06:21:19.779Z,4.79
2022-12-19T06:22:19.844Z,4.83
2022-12-19T06:23:19.934Z,4.80
2022-12-19T06:24:20.043Z,4.86
2022-12-19T06:25:20.083Z,4.88
2022-12-19T06:26:20.609Z,4.96
2022-12-19T06:27:20.273Z,5.01
2022-12-19T06:28:20.366Z,4.99
2022-12-19T06:29:20.454Z,5.05
2022-12-19T06:30:20.541Z,5.09
2022-12-19T06:31:20.703Z,5.14
2022-12-19T06:32:20.722Z,5.19
2022-12-19T06:33:20.800Z,5.22
2022-12-19T06:34:46.978Z,5.24
2022-12-19T06:35:20.975Z,5.32
2022-12-19T06:36:21.079Z,5.37
2022-12-19T06:37:21.128Z,5.40
2022-12-19T06:38:21.202Z,5.44
2022-12-19T06:39:21.308Z,5.47
2022-12-19T06:40:21.373Z,5.51
2022-12-19T06:41:21.456Z,5.56
2022-12-19T06:42:21.551Z,5.58
2022-12-19T06:43:21.618Z,5.66
2022-12-19T06:44:21.751Z,5.63
2022-12-19T06:45:21.808Z,5.59
2022-12-19T06:46:21.900Z,5.51
2022-12-19T06:47:21.989Z,5.44
2022-12-19T06:48:22.051Z,5.37
2022-12-19T06:49:22.146Z,5.29
2022-12-19T06:50:22.224Z,5.26
2022-12-19T06:51:22.308Z,5.19
2022-12-19T06:52:22.414Z,5.12
2022-12-19T06:53:22.444Z,5.15
2022-12-19T06:54:22.561Z,5.17
2022-12-19T06:55:22.611Z,5.17
2022-12-19T06:56:22.686Z,5.20
2022-12-19T06:57:22.749Z,5.24
2022-12-19T06:58:24.529Z,5.26
2022-12-19T06:59:22.911Z,5.26
2022-12-19T07:00:22.983Z,5.26
2022-12-19T07:01:23.201Z,5.22
2022-12-19T07:02:23.229Z,5.20
2022-12-19T07:03:23.214Z,5.17
2022-12-19T07:04:23.321Z,5.15
2022-12-19T07:05:23.380Z,5.11
2022-12-19T07:06:23.455Z,5.06
2022-12-19T07:07:23.538Z,5.11
2022-12-19T07:08:23.604Z,5.12
2022-12-19T07:09:23.720Z,5.15
2022-12-19T07:10:23.812Z,5.22
2022-12-19T07:11:23.869Z,5.23
2022-12-19T07:12:23.957Z,5.20
2022-12-19T07:13:24.026Z,5.23
2022-12-19T07:14:24.094Z,5.22
2022-12-19T07:15:24.166Z,5.20
2022-12-19T07:16:24.284Z,5.22
2022-12-19T07:17:24.334Z,5.19
2022-12-19T07:18:24.421Z,5.20
2022-12-19T07:19:24.529Z,5.29
2022-12-19T07:20:24.574Z,5.30
2022-12-19T07:21:24.649Z,5.29
2022-12-19T07:22:24.744Z,5.37
2022-12-19T07:23:24.818Z,5.38
2022-12-19T07:24:24.894Z,5.41
2022-12-19T07:25:24.967Z,5.42
2022-12-19T07:26:25.044Z,5.37
2022-12-19T07:27:29.754Z,5.33
2022-12-19T07:28:25.193Z,5.38
2022-12-19T07:29:25.289Z,5.49
2022-12-19T07:30:25.327Z,5.65
2022-12-19T07:31:25.473Z,5.75
2022-12-19T07:32:25.472Z,5.83
2022-12-19T07:33:25.567Z,5.83
2022-12-19T07:34:25.654Z,5.80
2022-12-19T07:35:25.741Z,5.85
2022-12-19T07:36:25.819Z,5.99
2022-12-19T07:37:25.905Z,6.20
2022-12-19T07:38:26.014Z,6.28
2022-12-19T07:39:26.078Z,6.35
2022-12-19T07:40:26.123Z,6.45
2022-12-19T07:41:26.203Z,6.43
2022-12-19T07:42:32.117Z,6.43
2022-12-19T07:43:26.372Z,6.43
2022-12-19T07:44:26.462Z,6.39
2022-12-19T07:45:26.619Z,6.32
2022-12-19T07:46:26.593Z,6.30
2022-12-19T07:47:26.664Z,6.32
2022-12-19T07:48:26.744Z,6.27
2022-12-19T07:49:26.852Z,6.51
2022-12-19T07:50:26.889Z,6.53
2022-12-19T07:51:26.971Z,6.64
2022-12-19T07:52:27.061Z,6.72
2022-12-19T07:53:27.129Z,6.64
2022-12-19T07:54:27.226Z,6.61
2022-12-19T07:55:27.290Z,6.60
2022-12-19T07:56:27.354Z,6.61
2022-12-19T07:57:27.465Z,6.61
2022-12-19T07:58:27.538Z,6.65
2022-12-19T07:59:32.304Z,6.73
2022-12-19T08:00:27.680Z,6.91
2022-12-19T08:01:28.563Z,7.05
2022-12-19T08:02:27.931Z,7.09
2022-12-19T08:03:28.015Z,7.08
2022-12-19T08:04:28.018Z,7.05
2022-12-19T08:05:28.098Z,7.00
2022-12-19T08:06:28.184Z,7.05
2022-12-19T08:07:28.269Z,7.09
2022-12-19T08:08:28.384Z,7.19
2022-12-19T08:09:28.453Z,7.33
2022-12-19T08:10:28.543Z,7.27
2022-12-19T08:11:28.593Z,7.14
2022-12-19T08:12:28.672Z,7.08
2022-12-19T08:13:33.597Z,6.99
2022-12-19T08:14:28.848Z,6.87
2022-12-19T08:15:28.925Z,6.73
2022-12-19T08:16:29.278Z,6.71
2022-12-19T08:17:29.130Z,6.65
2022-12-19T08:18:29.162Z,6.72
2022-12-19T08:19:29.272Z,6.71
2022-12-19T08:20:29.288Z,6.75
2022-12-19T08:21:29.384Z,6.82
2022-12-19T08:22:29.473Z,6.90
2022-12-19T08:23:29.564Z,6.96
2022-12-19T08:24:29.655Z,7.08
2022-12-19T08:25:29.742Z,7.12
2022-12-19T08:26:32.548Z,7.12
2022-12-19T08:27:29.928Z,7.05
2022-12-19T08:28:29.999Z,7.00
2022-12-19T08:29:30.130Z,6.90
2022-12-19T08:30:30.346Z,6.78
2022-12-19T08:31:30.272Z,6.64
2022-12-19T08:32:30.359Z,6.55
2022-12-19T08:33:30.459Z,6.45
2022-12-19T08:34:30.524Z,6.36
2022-12-19T08:35:30.602Z,6.28
2022-12-19T08:36:30.678Z,6.25
2022-12-19T08:37:30.754Z,6.21
2022-12-19T08:38:30.819Z,6.16
2022-12-19T08:39:30.906Z,6.10
2022-12-19T08:40:30.948Z,6.03
2022-12-19T08:41:31.023Z,5.88
2022-12-19T08:42:31.096Z,5.78
2022-12-19T08:43:31.170Z,5.75
2022-12-19T08:44:31.279Z,5.69
2022-12-19T08:45:31.346Z,5.63
2022-12-19T08:46:31.469Z,5.59
2022-12-19T08:47:31.522Z,5.58
2022-12-19T08:48:31.601Z,5.52
2022-12-19T08:49:31.730Z,5.51
2022-12-19T08:50:31.770Z,5.52
2022-12-19T08:51:31.848Z,5.52
2022-12-19T08:52:31.920Z,5.56
2022-12-19T08:53:32.220Z,5.55
2022-12-19T08:54:32.110Z,5.56
2022-12-19T08:55:32.156Z,5.55
2022-12-19T08:56:32.230Z,5.55
2022-12-19T08:57:32.306Z,5.51
2022-12-19T08:58:32.382Z,5.52
2022-12-19T08:59:32.596Z,5.51
2022-12-19T09:00:32.552Z,5.47
2022-12-19T09:01:32.737Z,5.47
2022-12-19T09:02:33.003Z,5.42
2022-12-19T09:03:34.077Z,5.42
2022-12-19T09:06:01.421Z,5.40
2022-12-19T09:06:17.886Z,5.35
2022-12-19T09:06:33.081Z,5.35
2022-12-19T09:07:33.114Z,5.30
2022-12-19T09:08:33.219Z,5.30
2022-12-19T09:09:33.304Z,5.27
2022-12-19T09:10:33.341Z,5.30
2022-12-19T09:11:33.411Z,5.29
2022-12-19T09:12:33.487Z,5.29
2022-12-19T09:13:33.564Z,5.30
2022-12-19T09:14:33.650Z,5.37
2022-12-19T09:15:33.736Z,5.38
2022-12-19T09:16:33.936Z,5.41
2022-12-19T09:17:33.902Z,5.45
2022-12-19T09:18:33.996Z,5.48
2022-12-19T09:19:34.111Z,5.52
2022-12-19T09:20:34.182Z,5.55
2022-12-19T09:21:34.262Z,5.58
2022-12-19T09:22:34.336Z,5.58
2022-12-19T09:23:34.425Z,5.60
2022-12-19T09:24:34.503Z,5.60
2022-12-19T09:25:34.586Z,5.63
2022-12-19T09:26:34.646Z,5.62
2022-12-19T09:27:53.696Z,5.63
2022-12-19T09:28:34.781Z,5.65
2022-12-19T09:29:35.684Z,5.66
2022-12-19T09:30:35.549Z,5.69
2022-12-19T09:31:35.031Z,5.65
2022-12-19T09:32:35.110Z,5.69
2022-12-19T09:33:41.228Z,5.70
2022-12-19T09:34:37.431Z,5.74
2022-12-19T09:35:35.334Z,5.75
2022-12-19T09:36:35.414Z,5.75
2022-12-19T09:37:35.521Z,5.81
2022-12-19T09:38:38.167Z,5.88
2022-12-19T09:39:35.678Z,5.92
2022-12-19T09:40:35.737Z,5.93
2022-12-19T09:41:35.808Z,5.99
2022-12-19T09:42:40.687Z,6.03
2022-12-19T09:43:41.066Z,6.10
2022-12-19T09:44:36.085Z,6.11
2022-12-19T09:45:36.153Z,6.10
2022-12-19T09:46:36.298Z,6.10
2022-12-19T09:47:36.311Z,6.08
2022-12-19T09:48:36.389Z,6.03
2022-12-19T09:49:36.495Z,6.06
2022-12-19T09:50:36.540Z,6.05
2022-12-19T09:51:36.608Z,6.05
2022-12-19T09:52:36.679Z,6.08
2022-12-19T09:53:36.752Z,6.10
2022-12-19T09:54:36.837Z,6.13
2022-12-19T09:55:36.896Z,6.08
2022-12-19T09:56:45.540Z,6.08
2022-12-19T09:57:37.060Z,6.06
2022-12-19T09:58:37.138Z,6.08
2022-12-19T09:59:41.407Z,6.08
2022-12-19T10:00:37.317Z,6.06
2022-12-19T10:01:37.501Z,6.06
2022-12-19T10:02:37.658Z,6.05
2022-12-19T10:03:40.249Z,6.06
2022-12-19T10:04:37.606Z,6.08
2022-12-19T10:06:26.865Z,6.06
2022-12-19T10:07:59.678Z,6.05
2022-12-19T10:08:10.603Z,6.02
2022-12-19T10:08:38.798Z,6.05
2022-12-19T10:11:41.749Z,6.03
2022-12-19T10:12:52.973Z,6.02
2022-12-19T10:12:59.775Z,6.02
2022-12-19T10:13:56.178Z,6.02
2022-12-19T10:14:56.247Z,6.05
2022-12-19T10:16:00.570Z,6.02
2022-12-19T10:17:22.584Z,6.02
2022-12-19T10:17:56.475Z,6.02
2022-12-19T10:18:57.304Z,6.02
2022-12-19T10:19:56.659Z,6.02
2022-12-19T10:20:56.785Z,6.05
2022-12-19T10:22:17.889Z,6.05
2022-12-19T10:22:56.875Z,6.06
2022-12-19T10:23:56.939Z,6.01
2022-12-19T10:25:08.728Z,5.99
2022-12-19T10:25:57.123Z,5.96
2022-12-19T10:26:57.195Z,5.93
2022-12-19T10:27:58.782Z,5.88
2022-12-19T10:28:57.383Z,5.90
2022-12-19T10:29:57.457Z,5.88
2022-12-19T10:30:57.551Z,5.85
2022-12-19T10:31:57.763Z,5.85
2022-12-19T10:32:57.632Z,5.78
2022-12-19T10:33:57.703Z,5.78
2022-12-19T10:34:57.800Z,5.80
2022-12-19T10:36:02.057Z,5.78
2022-12-19T10:37:26.588Z,5.77
2022-12-19T10:37:58.043Z,5.81
2022-12-19T10:38:58.107Z,5.83
2022-12-19T10:39:58.306Z,5.83
2022-12-19T10:40:58.227Z,5.87
2022-12-19T10:41:58.297Z,5.83
2022-12-19T10:42:58.411Z,5.80
2022-12-19T10:43:58.466Z,5.80
2022-12-19T10:44:58.549Z,5.81
2022-12-19T10:45:58.689Z,5.78
2022-12-19T10:46:58.774Z,5.77
2022-12-19T10:47:58.764Z,5.77
2022-12-19T10:48:58.850Z,5.75
2022-12-19T10:50:02.666Z,5.78
2022-12-19T10:51:06.337Z,5.77
2022-12-19T10:51:59.156Z,5.75
2022-12-19T10:52:59.160Z,5.73
2022-12-19T10:53:59.214Z,5.70
2022-12-19T10:54:59.318Z,5.63
2022-12-19T10:55:59.375Z,5.62
2022-12-19T10:56:59.435Z,5.59
2022-12-19T10:57:59.509Z,5.58
2022-12-19T10:59:00.446Z,5.56
2022-12-19T10:59:59.743Z,5.56
2022-12-19T11:00:59.752Z,5.56
2022-12-19T11:02:00.683Z,5.58
2022-12-19T11:03:00.025Z,5.59
2022-12-19T11:03:59.955Z,5.58
2022-12-19T11:05:00.121Z,5.58
2022-12-19T11:06:00.135Z,5.62
2022-12-19T11:07:00.206Z,5.62
2022-12-19T11:08:00.270Z,5.63
2022-12-19T11:09:00.331Z,5.63
2022-12-19T11:10:44.743Z,5.67
2022-12-19T11:18:13.492Z,5.69
2022-12-19T11:31:52.841Z,5.69
2022-12-19T11:32:44.796Z,5.73
2022-12-19T11:32:50.278Z,5.74
2022-12-19T11:33:24.618Z,5.75
2022-12-19T11:34:24.662Z,5.75
2022-12-19T11:35:25.400Z,5.74
2022-12-19T11:36:24.771Z,5.75
2022-12-19T11:37:24.850Z,5.77
2022-12-19T11:38:24.928Z,5.81
2022-12-19T11:39:25.024Z,5.81
2022-12-19T11:40:25.081Z,5.81
2022-12-19T11:41:25.154Z,5.81
2022-12-19T11:42:25.219Z,5.81
2022-12-19T11:43:43.712Z,5.83
2022-12-19T11:44:25.402Z,5.83
2022-12-19T11:45:25.467Z,5.88
2022-12-19T11:46:25.550Z,5.90
2022-12-19T11:47:25.680Z,5.92
2022-12-19T11:48:25.712Z,5.95
2022-12-19T11:49:25.829Z,5.96
2022-12-19T11:50:25.858Z,6.01
2022-12-19T11:51:25.937Z,6.05
2022-12-19T11:53:26.099Z,6.13
2022-12-19T11:54:26.156Z,6.14
2022-12-19T11:55:26.238Z,6.17
2022-12-19T11:56:26.307Z,6.21
2022-12-19T11:57:26.379Z,6.24
2022-12-19T11:58:26.460Z,6.27
2022-12-19T11:59:26.573Z,6.32
2022-12-19T12:00:26.599Z,6.35
2022-12-19T12:01:26.733Z,6.38
2022-12-19T12:02:26.734Z,6.38
2022-12-19T12:03:26.860Z,6.40
2022-12-19T12:04:26.923Z,6.43
2022-12-19T12:05:26.968Z,6.45
2022-12-19T12:06:31.379Z,6.43
2022-12-19T12:08:27.948Z,6.48
2022-12-19T12:15:03.470Z,6.48
2022-12-19T12:32:00.732Z,6.53
2022-12-19T12:38:14.217Z,6.46
2022-12-19T12:38:27.711Z,6.55
2022-12-19T12:39:03.395Z,6.60
2022-12-19T12:40:03.419Z,6.69
2022-12-19T12:41:03.505Z,6.78
2022-12-19T12:42:03.589Z,6.86
2022-12-19T12:43:03.656Z,6.86
2022-12-19T12:44:03.739Z,6.93
2022-12-19T12:45:03.832Z,6.93
2022-12-19T12:46:03.973Z,6.97
2022-12-19T12:47:04.008Z,7.00
2022-12-19T12:48:04.042Z,7.05
2022-12-19T12:49:04.156Z,7.05
2022-12-19T12:50:04.209Z,7.07
2022-12-19T12:51:04.286Z,7.05
2022-12-19T12:52:04.350Z,7.07
2022-12-19T12:53:04.444Z,7.07
2022-12-19T12:54:04.522Z,7.05
2022-12-19T12:55:04.627Z,7.01
2022-12-19T12:56:06.580Z,7.00
2022-12-19T12:57:04.794Z,7.00
2022-12-19T12:58:09.221Z,6.99
2022-12-19T12:59:04.918Z,6.97
2022-12-19T13:00:05.000Z,6.94
2022-12-19T13:01:05.122Z,6.93
2022-12-19T13:02:05.378Z,6.93
2022-12-19T13:03:05.534Z,6.89
2022-12-19T13:04:05.357Z,6.86
2022-12-19T13:05:05.432Z,6.83
2022-12-19T13:06:05.510Z,6.79
2022-12-19T13:07:05.592Z,6.76
2022-12-19T13:08:05.634Z,6.72
2022-12-19T13:09:05.703Z,6.71
2022-12-19T13:10:05.790Z,6.71
2022-12-19T13:11:05.873Z,6.73
2022-12-19T13:12:05.972Z,6.72
2022-12-19T13:13:10.894Z,6.73
2022-12-19T13:14:06.173Z,6.73
2022-12-19T13:15:06.265Z,6.78
2022-12-19T13:16:06.286Z,6.75
2022-12-19T13:17:06.420Z,6.73
2022-12-19T13:18:06.421Z,6.76
2022-12-19T13:19:09.136Z,6.79
2022-12-19T13:20:06.587Z,6.82
2022-12-19T13:21:06.667Z,6.89
2022-12-19T13:22:06.762Z,6.96
2022-12-19T13:23:06.822Z,7.04
2022-12-19T13:24:06.879Z,7.11
2022-12-19T13:25:06.963Z,7.19
2022-12-19T13:26:07.021Z,7.21
2022-12-19T13:27:07.112Z,7.30
2022-12-19T13:28:07.164Z,7.36
2022-12-19T13:29:07.230Z,7.41
2022-12-19T13:30:07.467Z,7.44
2022-12-19T13:31:18.690Z,7.50
2022-12-19T13:32:07.544Z,7.52
2022-12-19T13:33:07.553Z,7.57
2022-12-19T13:34:07.636Z,7.62
2022-12-19T13:36:49.985Z,7.60
2022-12-19T13:40:11.044Z,7.63
2022-12-19T13:40:20.554Z,7.63
2022-12-19T13:41:07.525Z,7.63
2022-12-19T13:42:07.601Z,7.60
2022-12-19T13:43:10.881Z,7.55
2022-12-19T13:44:07.770Z,7.55
2022-12-19T13:45:07.857Z,7.50
2022-12-19T13:46:07.982Z,7.47
2022-12-19T13:47:08.000Z,7.48
2022-12-19T13:48:08.088Z,7.45
2022-12-19T13:49:08.170Z,7.45
2022-12-19T13:50:08.261Z,7.42
2022-12-19T13:51:08.306Z,7.47
2022-12-19T13:52:08.380Z,7.51
2022-12-19T13:53:08.521Z,7.52
2022-12-19T13:54:08.551Z,7.57
2022-12-19T13:55:08.603Z,7.66
2022-12-19T13:56:08.696Z,7.66
2022-12-19T13:57:09.688Z,7.63
2022-12-19T13:58:08.861Z,7.60
2022-12-19T13:59:08.936Z,7.57
2022-12-19T14:00:09.105Z,7.57
2022-12-19T14:01:11.484Z,7.58
2022-12-19T14:02:09.378Z,7.62
2022-12-19T14:03:09.474Z,7.62
2022-12-19T14:04:09.539Z,7.66
2022-12-19T14:05:09.455Z,7.63
2022-12-19T14:06:15.879Z,7.62
2022-12-19T14:07:09.589Z,7.63
2022-12-19T14:08:09.669Z,7.66
2022-12-19T14:09:37.377Z,7.63